Relevés horaires Eggishorn (Suisse)


Relevés horaires à Eggishorn - Samedi 28 Déc. 2019
Heure UTC1 Température [°C] Vent [km/h] Hum. [%] Pres.4 [hPa] Visi. [Km] Nébu. [octa] Préc.5 [mm] Cond.
2m. Res. Ros. Dir.2 Vit. Moy. Raf.3
23:00 -0.6 -4.8 -25.2 NE 13.0 -- 31.5 13 700(0.0/3h) -- -- -- --
22:00 -0.6 -5.5 -23.8 ENE 16.7 -- 35.2 15 700(0.3/3h) -- -- -- --
21:00 0.6 -4.5 -22.5 ENE 20.4 -- 31.5 16 700(0.1/3h) -- -- -- --
20:00 1.1 -3.4 -24.3 E 16.7 -- 25.9 13 700(0.5/3h) -- -- -- --
19:00 0.4 -2.1 -24.1 ENE 7.4 -- 31.5 14 700(0.6/3h) -- -- -- --
18:00 -1.1 -6.4 -20.6 N 18.5 -- 44.4 21 700(0.9/3h) -- -- -- --
17:00 -1.7 -8 -20.7 NNO 24.1 -- 44.4 22 700(0.9/3h) -- -- -- --
16:00 -1.1 -7.2 -21.8 NNO 24.1 -- 42.6 19 700(0.8/3h) -- -- -- --
15:00 -1.1 -5.7 -22.3 NE 14.8 -- 35.2 18 700(0.1/3h) -- -- -- --
14:00 -0.6 -4.8 -27.2 NE 13.0 -- 25.9 11 700(-0.5/3h) -- -- -- --
13:00 -1.1 -5.4 -24.7 ENE 13.0 -- 35.2 15 700(-0.6/3h) -- -- -- --
12:00 0.8 -3.7 -26.1 NNE 16.7 -- 42.6 11 700(0.3/3h) -- -- -- --
11:00 0.3 -3.7 -25.8 NE 13.0 -- 37.0 12 700(1.1/3h) -- -- -- --
10:00 2.3 -0.4 -24.0 ENE 9.3 -- 31.5 12 700(1.3/3h) -- -- -- --
09:00 -0.3 -4.4 -25.8 ENE 13.0 -- 40.7 12 700(1.3/3h) -- -- -- --
08:00 0.3 -4.9 -25.7 NNE 20.4 -- 38.9 12 700(0.9/3h) -- -- -- --
07:00 -3.4 -7.7 -25.0 N 11.1 -- 35.2 17 700(0.8/3h) -- -- -- --
06:00 -3.0 -8.1 -26.0 N 14.8 -- 46.3 15 700(0.4/3h) -- -- -- --
05:00 -2.1 -7.6 -24.7 N 18.5 -- 42.6 16 700(0.4/3h) -- -- -- --
04:00 -1.6 -5.5 -25.0 ENE 11.1 -- 29.6 15 700(0.6/3h) -- -- -- --
03:00 -2.5 -7.1 -24.6 N 13.0 -- 46.3 16 700(0.8/3h) -- -- -- --
02:00 -3.5 -10.5 -23.7 N 25.9 -- 42.6 19 700(0.6/3h) -- -- -- --
01:00 -4.3 -10.1 -20.9 N 16.7 -- 27.8 26 700(0.6/3h) -- -- -- --
00:00 -5.3 -11.7 -14.8 N 18.5 -- 48.2 47 700(0.6/3h) -- -- -- --

1 Coordinated Universal Time. Actuellement il est 09:00 locale et 07:00 UTC.

2 Le vent souffle depuis la direction indiquée vers la direction oposée.

3 Les rafales max. sont disponible 40 min après l'heure du relevé.

4 Pour les stations d'altitude (plus de 600m) le géopotentiel du niveau le plus proche de la pression obligatoire est indiqué.

5 Les stations disposant d'un diffuseur peuvent indiquer "trace". Cela signifie que des précipitations ont touchés le sol mais que la quantité est inférieure à 0.1 mm.

Copyright

Les données affichées sur cette page sont la propriété exclusive de Météo Suisse.

Récapitulatif de la journée
Température [°C] Vent [km/h] Ensoleillement4 [h] Precipitations totale5 [mm] Pression [Hpa]
Min1 Max.2 Moy.3 Max. Min Max.
-7.6 2.6 0 48.2 7 h 6 min 0 700.0 700.0

1 Température minimale relevée entre 18:00 UTC la veille et 18:00 UTC le jour donné.

2 Température maximale relevée entre 06:00 UTC le jour donné et 06:00 UTC le lendemain.

3 Vent moyen de la journée basé sur les relevés horaires.

4 Ensoleillement en heures relevé entre 06:00 UTC la veille et 06:00 UTC le jour donné.

5 Précipitations totales tombées entre 06:00 UTC la jour donné et 06:00 UTC le lendemain.

Graphiques horaires